sensor_id;sensor_type;location;lat;lon;timestamp;temperature;humidity
4487;DHT22;2256;48.740;9.106;2023-03-12T00:01:12;-1.00;99.90
4487;DHT22;2256;48.740;9.106;2023-03-12T00:03:40;-1.00;99.90
4487;DHT22;2256;48.740;9.106;2023-03-12T00:06:06;-1.00;99.90
4487;DHT22;2256;48.740;9.106;2023-03-12T00:08:33;-1.00;99.90
4487;DHT22;2256;48.740;9.106;2023-03-12T00:11:05;-1.00;99.90
4487;DHT22;2256;48.740;9.106;2023-03-12T00:13:33;-1.10;99.90
4487;DHT22;2256;48.740;9.106;2023-03-12T00:16:05;-1.10;99.90
4487;DHT22;2256;48.740;9.106;2023-03-12T00:18:33;-1.10;99.90
4487;DHT22;2256;48.740;9.106;2023-03-12T00:20:59;-1.30;99.90
4487;DHT22;2256;48.740;9.106;2023-03-12T00:23:26;-1.30;99.90
4487;DHT22;2256;48.740;9.106;2023-03-12T00:25:53;-1.20;99.90
4487;DHT22;2256;48.740;9.106;2023-03-12T00:28:24;-1.20;99.90
4487;DHT22;2256;48.740;9.106;2023-03-12T00:30:52;-1.20;99.90
4487;DHT22;2256;48.740;9.106;2023-03-12T00:33:19;-1.20;99.90
4487;DHT22;2256;48.740;9.106;2023-03-12T00:35:46;-1.20;99.90
4487;DHT22;2256;48.740;9.106;2023-03-12T00:38:12;-1.20;99.90
4487;DHT22;2256;48.740;9.106;2023-03-12T00:40:39;-1.20;99.90
4487;DHT22;2256;48.740;9.106;2023-03-12T00:43:06;-1.20;99.90
4487;DHT22;2256;48.740;9.106;2023-03-12T00:45:33;-1.20;99.90
4487;DHT22;2256;48.740;9.106;2023-03-12T00:48:01;-1.20;99.90
4487;DHT22;2256;48.740;9.106;2023-03-12T00:50:28;-1.20;99.90
4487;DHT22;2256;48.740;9.106;2023-03-12T00:52:54;-1.20;99.90
4487;DHT22;2256;48.740;9.106;2023-03-12T00:55:21;-1.40;99.90
4487;DHT22;2256;48.740;9.106;2023-03-12T00:57:48;-1.40;99.90
4487;DHT22;2256;48.740;9.106;2023-03-12T01:00:15;-1.30;99.90
4487;DHT22;2256;48.740;9.106;2023-03-12T01:02:42;-1.20;99.90
4487;DHT22;2256;48.740;9.106;2023-03-12T01:05:11;-1.20;99.90
4487;DHT22;2256;48.740;9.106;2023-03-12T01:07:39;-1.30;99.90
4487;DHT22;2256;48.740;9.106;2023-03-12T01:10:06;-1.20;99.90
4487;DHT22;2256;48.740;9.106;2023-03-12T01:12:34;-1.20;99.90
4487;DHT22;2256;48.740;9.106;2023-03-12T01:15:01;-1.20;99.90
4487;DHT22;2256;48.740;9.106;2023-03-12T01:17:28;-1.10;99.90
4487;DHT22;2256;48.740;9.106;2023-03-12T01:19:55;-1.00;99.90
4487;DHT22;2256;48.740;9.106;2023-03-12T01:22:23;-0.90;99.90
4487;DHT22;2256;48.740;9.106;2023-03-12T01:24:50;-0.80;99.90
4487;DHT22;2256;48.740;9.106;2023-03-12T01:27:17;-0.60;99.90
4487;DHT22;2256;48.740;9.106;2023-03-12T01:29:45;-0.60;99.90
4487;DHT22;2256;48.740;9.106;2023-03-12T01:32:11;-0.60;99.90
4487;DHT22;2256;48.740;9.106;2023-03-12T01:34:38;-0.60;99.90
4487;DHT22;2256;48.740;9.106;2023-03-12T01:37:05;-0.50;99.90
4487;DHT22;2256;48.740;9.106;2023-03-12T01:39:34;-0.40;99.90
4487;DHT22;2256;48.740;9.106;2023-03-12T01:42:01;-0.30;99.90
4487;DHT22;2256;48.740;9.106;2023-03-12T01:44:28;-0.20;99.90
4487;DHT22;2256;48.740;9.106;2023-03-12T01:46:55;-0.20;99.90
4487;DHT22;2256;48.740;9.106;2023-03-12T01:49:24;-0.10;99.90
4487;DHT22;2256;48.740;9.106;2023-03-12T01:51:55;-0.10;99.90
4487;DHT22;2256;48.740;9.106;2023-03-12T01:54:26;-0.20;99.90
4487;DHT22;2256;48.740;9.106;2023-03-12T01:56:56;-0.10;99.90
4487;DHT22;2256;48.740;9.106;2023-03-12T01:59:25;0.00;99.90
4487;DHT22;2256;48.740;9.106;2023-03-12T02:01:56;0.10;99.90
4487;DHT22;2256;48.740;9.106;2023-03-12T02:04:24;0.10;99.90
4487;DHT22;2256;48.740;9.106;2023-03-12T02:06:56;0.20;99.90
4487;DHT22;2256;48.740;9.106;2023-03-12T02:09:25;0.20;99.90
4487;DHT22;2256;48.740;9.106;2023-03-12T02:11:52;0.20;99.90
4487;DHT22;2256;48.740;9.106;2023-03-12T02:14:20;0.30;99.90
4487;DHT22;2256;48.740;9.106;2023-03-12T02:16:47;0.40;99.90
4487;DHT22;2256;48.740;9.106;2023-03-12T02:19:19;0.40;99.90
4487;DHT22;2256;48.740;9.106;2023-03-12T02:21:48;0.50;99.90
4487;DHT22;2256;48.740;9.106;2023-03-12T02:24:24;0.50;99.90
4487;DHT22;2256;48.740;9.106;2023-03-12T02:26:54;0.50;99.90
4487;DHT22;2256;48.740;9.106;2023-03-12T02:29:21;0.30;99.90
4487;DHT22;2256;48.740;9.106;2023-03-12T02:31:52;0.20;99.90
4487;DHT22;2256;48.740;9.106;2023-03-12T02:34:21;0.20;99.90
4487;DHT22;2256;48.740;9.106;2023-03-12T02:36:48;0.10;99.90
4487;DHT22;2256;48.740;9.106;2023-03-12T02:39:15;0.20;99.90
4487;DHT22;2256;48.740;9.106;2023-03-12T02:41:44;0.20;99.90
4487;DHT22;2256;48.740;9.106;2023-03-12T02:44:16;0.10;99.90
4487;DHT22;2256;48.740;9.106;2023-03-12T02:46:45;0.10;99.90
4487;DHT22;2256;48.740;9.106;2023-03-12T02:49:13;0.10;99.90
4487;DHT22;2256;48.740;9.106;2023-03-12T02:51:41;0.10;99.90
4487;DHT22;2256;48.740;9.106;2023-03-12T02:54:08;0.20;99.90
4487;DHT22;2256;48.740;9.106;2023-03-12T02:56:35;0.20;99.90
4487;DHT22;2256;48.740;9.106;2023-03-12T02:59:03;0.10;99.90
4487;DHT22;2256;48.740;9.106;2023-03-12T03:01:32;0.00;99.90
4487;DHT22;2256;48.740;9.106;2023-03-12T03:03:59;0.00;99.90
4487;DHT22;2256;48.740;9.106;2023-03-12T03:06:29;-0.10;99.90
4487;DHT22;2256;48.740;9.106;2023-03-12T03:08:57;-0.10;99.90
4487;DHT22;2256;48.740;9.106;2023-03-12T03:11:24;-0.10;99.90
4487;DHT22;2256;48.740;9.106;2023-03-12T03:13:51;-0.10;99.90
4487;DHT22;2256;48.740;9.106;2023-03-12T03:16:18;-0.10;99.90
4487;DHT22;2256;48.740;9.106;2023-03-12T03:18:46;-0.10;99.90
4487;DHT22;2256;48.740;9.106;2023-03-12T03:21:13;-0.10;99.90
4487;DHT22;2256;48.740;9.106;2023-03-12T03:23:42;-0.10;99.90
4487;DHT22;2256;48.740;9.106;2023-03-12T03:26:09;-0.10;99.90
4487;DHT22;2256;48.740;9.106;2023-03-12T03:28:36;0.10;99.90
4487;DHT22;2256;48.740;9.106;2023-03-12T03:31:03;0.20;99.90
4487;DHT22;2256;48.740;9.106;2023-03-12T03:33:32;0.40;99.90
4487;DHT22;2256;48.740;9.106;2023-03-12T03:36:00;0.40;99.90
4487;DHT22;2256;48.740;9.106;2023-03-12T03:38:29;0.50;99.90
4487;DHT22;2256;48.740;9.106;2023-03-12T03:40:56;0.50;99.90
4487;DHT22;2256;48.740;9.106;2023-03-12T03:43:23;0.60;99.90
4487;DHT22;2256;48.740;9.106;2023-03-12T03:45:56;0.80;99.90
4487;DHT22;2256;48.740;9.106;2023-03-12T03:48:23;0.80;99.90
4487;DHT22;2256;48.740;9.106;2023-03-12T03:50:50;0.90;99.90
4487;DHT22;2256;48.740;9.106;2023-03-12T03:53:19;0.90;99.90
4487;DHT22;2256;48.740;9.106;2023-03-12T03:55:46;0.90;99.90
4487;DHT22;2256;48.740;9.106;2023-03-12T03:58:13;0.90;99.90
4487;DHT22;2256;48.740;9.106;2023-03-12T04:00:40;0.90;99.90
4487;DHT22;2256;48.740;9.106;2023-03-12T04:03:09;0.90;99.90
4487;DHT22;2256;48.740;9.106;2023-03-12T04:05:36;1.00;99.90
4487;DHT22;2256;48.740;9.106;2023-03-12T04:08:03;1.00;99.90
4487;DHT22;2256;48.740;9.106;2023-03-12T04:10:31;1.00;99.90
4487;DHT22;2256;48.740;9.106;2023-03-12T04:12:58;0.90;99.90
4487;DHT22;2256;48.740;9.106;2023-03-12T04:15:25;1.00;99.90
4487;DHT22;2256;48.740;9.106;2023-03-12T04:17:51;1.10;99.90
4487;DHT22;2256;48.740;9.106;2023-03-12T04:20:18;1.20;99.90
4487;DHT22;2256;48.740;9.106;2023-03-12T04:22:45;1.20;99.90
4487;DHT22;2256;48.740;9.106;2023-03-12T04:25:12;1.10;99.90
4487;DHT22;2256;48.740;9.106;2023-03-12T04:27:40;1.20;99.90
4487;DHT22;2256;48.740;9.106;2023-03-12T04:30:08;1.20;99.90
4487;DHT22;2256;48.740;9.106;2023-03-12T04:32:35;1.30;99.90
4487;DHT22;2256;48.740;9.106;2023-03-12T04:35:02;1.40;99.90
4487;DHT22;2256;48.740;9.106;2023-03-12T04:37:31;1.40;99.90
4487;DHT22;2256;48.740;9.106;2023-03-12T04:39:58;1.40;99.90
4487;DHT22;2256;48.740;9.106;2023-03-12T04:42:25;1.50;99.90
4487;DHT22;2256;48.740;9.106;2023-03-12T04:44:53;1.50;99.90
4487;DHT22;2256;48.740;9.106;2023-03-12T04:47:20;1.70;99.90
4487;DHT22;2256;48.740;9.106;2023-03-12T04:49:47;1.80;99.90
4487;DHT22;2256;48.740;9.106;2023-03-12T04:52:13;1.80;99.90
4487;DHT22;2256;48.740;9.106;2023-03-12T04:54:42;1.90;99.90
4487;DHT22;2256;48.740;9.106;2023-03-12T04:57:09;1.90;99.90
4487;DHT22;2256;48.740;9.106;2023-03-12T04:59:36;2.00;99.90
4487;DHT22;2256;48.740;9.106;2023-03-12T05:02:04;2.00;99.90
4487;DHT22;2256;48.740;9.106;2023-03-12T05:04:31;2.00;99.90
4487;DHT22;2256;48.740;9.106;2023-03-12T05:06:57;2.10;99.90
4487;DHT22;2256;48.740;9.106;2023-03-12T05:09:24;2.10;99.90
4487;DHT22;2256;48.740;9.106;2023-03-12T05:11:51;2.20;99.90
4487;DHT22;2256;48.740;9.106;2023-03-12T05:14:18;2.20;99.90
4487;DHT22;2256;48.740;9.106;2023-03-12T05:16:44;2.20;99.90
4487;DHT22;2256;48.740;9.106;2023-03-12T05:19:13;2.20;99.90
4487;DHT22;2256;48.740;9.106;2023-03-12T05:21:40;2.30;99.90
4487;DHT22;2256;48.740;9.106;2023-03-12T05:24:07;2.30;99.90
4487;DHT22;2256;48.740;9.106;2023-03-12T05:26:34;2.30;99.90
4487;DHT22;2256;48.740;9.106;2023-03-12T05:29:02;2.30;99.90
4487;DHT22;2256;48.740;9.106;2023-03-12T05:31:30;2.40;99.90
4487;DHT22;2256;48.740;9.106;2023-03-12T05:33:59;2.40;99.90
4487;DHT22;2256;48.740;9.106;2023-03-12T05:36:28;2.50;99.90
4487;DHT22;2256;48.740;9.106;2023-03-12T05:38:54;2.50;99.90
4487;DHT22;2256;48.740;9.106;2023-03-12T05:41:23;2.60;99.90
4487;DHT22;2256;48.740;9.106;2023-03-12T05:43:51;2.60;99.90
4487;DHT22;2256;48.740;9.106;2023-03-12T05:46:18;2.60;99.90
4487;DHT22;2256;48.740;9.106;2023-03-12T05:48:45;2.60;99.90
4487;DHT22;2256;48.740;9.106;2023-03-12T05:51:12;2.60;99.90
4487;DHT22;2256;48.740;9.106;2023-03-12T05:53:40;2.70;99.90
4487;DHT22;2256;48.740;9.106;2023-03-12T05:56:10;2.60;99.90
4487;DHT22;2256;48.740;9.106;2023-03-12T05:58:39;2.60;99.90
4487;DHT22;2256;48.740;9.106;2023-03-12T06:01:11;2.70;99.90
4487;DHT22;2256;48.740;9.106;2023-03-12T06:03:37;2.70;99.90
4487;DHT22;2256;48.740;9.106;2023-03-12T06:06:04;2.60;99.90
4487;DHT22;2256;48.740;9.106;2023-03-12T06:08:31;2.40;99.90
4487;DHT22;2256;48.740;9.106;2023-03-12T06:10:59;2.40;99.90
4487;DHT22;2256;48.740;9.106;2023-03-12T06:13:26;2.40;99.90
4487;DHT22;2256;48.740;9.106;2023-03-12T06:15:53;2.40;99.90
4487;DHT22;2256;48.740;9.106;2023-03-12T06:18:19;2.40;99.90
4487;DHT22;2256;48.740;9.106;2023-03-12T06:20:46;2.40;99.90
4487;DHT22;2256;48.740;9.106;2023-03-12T06:23:13;2.20;99.90
4487;DHT22;2256;48.740;9.106;2023-03-12T06:25:40;2.00;99.90
4487;DHT22;2256;48.740;9.106;2023-03-12T06:28:11;2.00;99.90
4487;DHT22;2256;48.740;9.106;2023-03-12T06:30:37;2.10;99.90
4487;DHT22;2256;48.740;9.106;2023-03-12T06:33:04;2.00;99.90
4487;DHT22;2256;48.740;9.106;2023-03-12T06:35:33;1.90;99.90
4487;DHT22;2256;48.740;9.106;2023-03-12T06:38:00;1.80;99.90
4487;DHT22;2256;48.740;9.106;2023-03-12T06:40:27;1.80;99.90
4487;DHT22;2256;48.740;9.106;2023-03-12T06:42:53;1.80;99.90
4487;DHT22;2256;48.740;9.106;2023-03-12T06:45:22;1.90;99.90
4487;DHT22;2256;48.740;9.106;2023-03-12T06:47:48;2.00;99.90
4487;DHT22;2256;48.740;9.106;2023-03-12T06:50:15;2.10;99.90
4487;DHT22;2256;48.740;9.106;2023-03-12T06:52:42;2.20;99.90
4487;DHT22;2256;48.740;9.106;2023-03-12T06:55:09;2.20;99.90
4487;DHT22;2256;48.740;9.106;2023-03-12T06:57:36;2.20;99.90
4487;DHT22;2256;48.740;9.106;2023-03-12T07:00:04;2.20;99.90
4487;DHT22;2256;48.740;9.106;2023-03-12T07:02:33;2.30;99.90
4487;DHT22;2256;48.740;9.106;2023-03-12T07:05:00;2.30;99.90
4487;DHT22;2256;48.740;9.106;2023-03-12T07:07:27;2.20;99.90
4487;DHT22;2256;48.740;9.106;2023-03-12T07:09:53;2.20;99.90
4487;DHT22;2256;48.740;9.106;2023-03-12T07:12:20;2.10;99.90
4487;DHT22;2256;48.740;9.106;2023-03-12T07:14:47;2.20;99.90
4487;DHT22;2256;48.740;9.106;2023-03-12T07:17:14;2.20;99.90
4487;DHT22;2256;48.740;9.106;2023-03-12T07:19:42;2.10;99.90
4487;DHT22;2256;48.740;9.106;2023-03-12T07:22:08;2.10;99.90
4487;DHT22;2256;48.740;9.106;2023-03-12T07:24:35;2.00;99.90
4487;DHT22;2256;48.740;9.106;2023-03-12T07:27:02;2.10;99.90
4487;DHT22;2256;48.740;9.106;2023-03-12T07:29:29;2.10;99.90
4487;DHT22;2256;48.740;9.106;2023-03-12T07:31:56;2.10;99.90
4487;DHT22;2256;48.740;9.106;2023-03-12T07:34:23;2.20;99.90
4487;DHT22;2256;48.740;9.106;2023-03-12T07:36:51;2.30;99.90
4487;DHT22;2256;48.740;9.106;2023-03-12T07:39:19;2.40;99.90
4487;DHT22;2256;48.740;9.106;2023-03-12T07:41:46;2.50;99.90
4487;DHT22;2256;48.740;9.106;2023-03-12T07:44:12;2.60;99.90
4487;DHT22;2256;48.740;9.106;2023-03-12T07:46:39;2.80;99.90
4487;DHT22;2256;48.740;9.106;2023-03-12T07:49:06;2.90;99.90
4487;DHT22;2256;48.740;9.106;2023-03-12T07:51:33;3.10;99.90
4487;DHT22;2256;48.740;9.106;2023-03-12T07:54:01;3.30;99.90
4487;DHT22;2256;48.740;9.106;2023-03-12T07:56:28;3.40;99.90
4487;DHT22;2256;48.740;9.106;2023-03-12T07:58:55;3.60;99.90
4487;DHT22;2256;48.740;9.106;2023-03-12T08:01:22;3.80;99.90
4487;DHT22;2256;48.740;9.106;2023-03-12T08:03:49;4.00;99.90
4487;DHT22;2256;48.740;9.106;2023-03-12T08:06:16;4.10;99.90
4487;DHT22;2256;48.740;9.106;2023-03-12T08:08:43;4.50;99.90
4487;DHT22;2256;48.740;9.106;2023-03-12T08:11:11;4.90;99.90
4487;DHT22;2256;48.740;9.106;2023-03-12T08:13:37;5.10;99.90
4487;DHT22;2256;48.740;9.106;2023-03-12T08:16:04;5.20;99.90
4487;DHT22;2256;48.740;9.106;2023-03-12T08:18:31;5.20;99.90
4487;DHT22;2256;48.740;9.106;2023-03-12T08:20:58;5.10;99.90
4487;DHT22;2256;48.740;9.106;2023-03-12T08:23:25;5.10;99.90
4487;DHT22;2256;48.740;9.106;2023-03-12T08:25:53;5.00;99.90
4487;DHT22;2256;48.740;9.106;2023-03-12T08:28:23;5.00;99.90
4487;DHT22;2256;48.740;9.106;2023-03-12T08:30:51;4.90;99.90
4487;DHT22;2256;48.740;9.106;2023-03-12T08:33:19;4.80;99.90
4487;DHT22;2256;48.740;9.106;2023-03-12T08:35:46;4.90;99.90
4487;DHT22;2256;48.740;9.106;2023-03-12T08:38:12;4.90;99.90
4487;DHT22;2256;48.740;9.106;2023-03-12T08:40:39;4.80;99.90
4487;DHT22;2256;48.740;9.106;2023-03-12T08:43:06;4.90;99.90
4487;DHT22;2256;48.740;9.106;2023-03-12T08:45:34;5.20;99.90
4487;DHT22;2256;48.740;9.106;2023-03-12T08:48:01;5.40;99.90
4487;DHT22;2256;48.740;9.106;2023-03-12T08:50:28;5.50;99.90
4487;DHT22;2256;48.740;9.106;2023-03-12T08:52:56;5.70;99.90
4487;DHT22;2256;48.740;9.106;2023-03-12T08:55:23;5.80;99.90
4487;DHT22;2256;48.740;9.106;2023-03-12T08:57:50;5.90;99.90
4487;DHT22;2256;48.740;9.106;2023-03-12T09:00:18;6.00;99.90
4487;DHT22;2256;48.740;9.106;2023-03-12T09:02:46;6.00;99.90
4487;DHT22;2256;48.740;9.106;2023-03-12T09:05:14;6.10;99.90
4487;DHT22;2256;48.740;9.106;2023-03-12T09:07:41;6.40;99.90
4487;DHT22;2256;48.740;9.106;2023-03-12T09:10:09;6.90;99.90
4487;DHT22;2256;48.740;9.106;2023-03-12T09:12:36;7.40;99.90
4487;DHT22;2256;48.740;9.106;2023-03-12T09:15:04;7.70;99.90
4487;DHT22;2256;48.740;9.106;2023-03-12T09:17:31;7.90;99.90
4487;DHT22;2256;48.740;9.106;2023-03-12T09:19:59;7.80;99.90
4487;DHT22;2256;48.740;9.106;2023-03-12T09:22:28;7.80;99.90
4487;DHT22;2256;48.740;9.106;2023-03-12T09:24:54;8.00;99.90
4487;DHT22;2256;48.740;9.106;2023-03-12T09:27:22;8.30;99.90
4487;DHT22;2256;48.740;9.106;2023-03-12T09:29:49;8.90;99.90
4487;DHT22;2256;48.740;9.106;2023-03-12T09:32:16;9.00;99.90
4487;DHT22;2256;48.740;9.106;2023-03-12T09:34:42;9.00;99.90
4487;DHT22;2256;48.740;9.106;2023-03-12T09:37:11;8.80;99.90
4487;DHT22;2256;48.740;9.106;2023-03-12T09:39:37;8.70;99.90
4487;DHT22;2256;48.740;9.106;2023-03-12T09:42:05;8.50;99.90
4487;DHT22;2256;48.740;9.106;2023-03-12T09:44:39;8.60;99.90
4487;DHT22;2256;48.740;9.106;2023-03-12T09:47:11;9.30;99.90
4487;DHT22;2256;48.740;9.106;2023-03-12T09:49:45;9.40;99.90
4487;DHT22;2256;48.740;9.106;2023-03-12T09:52:21;9.40;99.90
4487;DHT22;2256;48.740;9.106;2023-03-12T09:54:54;9.20;99.90
4487;DHT22;2256;48.740;9.106;2023-03-12T09:57:24;9.00;99.90
4487;DHT22;2256;48.740;9.106;2023-03-12T09:59:53;9.00;99.90
4487;DHT22;2256;48.740;9.106;2023-03-12T10:02:48;9.20;99.90
4487;DHT22;2256;48.740;9.106;2023-03-12T10:05:25;9.30;99.90
4487;DHT22;2256;48.740;9.106;2023-03-12T10:08:03;9.40;99.90
4487;DHT22;2256;48.740;9.106;2023-03-12T10:10:48;9.50;99.90
4487;DHT22;2256;48.740;9.106;2023-03-12T10:13:28;9.70;99.90
4487;DHT22;2256;48.740;9.106;2023-03-12T10:16:07;10.10;99.90
4487;DHT22;2256;48.740;9.106;2023-03-12T10:18:45;10.40;99.90
4487;DHT22;2256;48.740;9.106;2023-03-12T10:21:20;10.60;99.90
4487;DHT22;2256;48.740;9.106;2023-03-12T10:23:59;10.90;99.90
4487;DHT22;2256;48.740;9.106;2023-03-12T10:26:31;10.80;99.90
4487;DHT22;2256;48.740;9.106;2023-03-12T10:29:00;10.80;99.90
4487;DHT22;2256;48.740;9.106;2023-03-12T10:31:33;10.90;99.90
4487;DHT22;2256;48.740;9.106;2023-03-12T10:34:02;11.30;99.90
4487;DHT22;2256;48.740;9.106;2023-03-12T10:36:37;11.60;99.90
4487;DHT22;2256;48.740;9.106;2023-03-12T10:39:12;11.70;99.90
4487;DHT22;2256;48.740;9.106;2023-03-12T10:41:41;11.60;99.90
4487;DHT22;2256;48.740;9.106;2023-03-12T10:44:15;11.40;99.90
4487;DHT22;2256;48.740;9.106;2023-03-12T10:46:58;11.00;99.90
4487;DHT22;2256;48.740;9.106;2023-03-12T10:49:32;10.80;99.90
4487;DHT22;2256;48.740;9.106;2023-03-12T10:52:01;10.50;99.90
4487;DHT22;2256;48.740;9.106;2023-03-12T10:54:33;10.40;99.90
4487;DHT22;2256;48.740;9.106;2023-03-12T10:57:00;10.30;99.90
4487;DHT22;2256;48.740;9.106;2023-03-12T10:59:30;10.30;99.90
4487;DHT22;2256;48.740;9.106;2023-03-12T11:01:58;10.40;99.90
4487;DHT22;2256;48.740;9.106;2023-03-12T11:04:27;10.90;99.90
4487;DHT22;2256;48.740;9.106;2023-03-12T11:07:20;12.00;99.90
4487;DHT22;2256;48.740;9.106;2023-03-12T11:10:13;12.60;99.90
4487;DHT22;2256;48.740;9.106;2023-03-12T11:12:51;13.00;99.90
4487;DHT22;2256;48.740;9.106;2023-03-12T11:15:20;13.10;99.90
4487;DHT22;2256;48.740;9.106;2023-03-12T11:17:47;12.90;99.90
4487;DHT22;2256;48.740;9.106;2023-03-12T11:20:24;12.90;99.90
4487;DHT22;2256;48.740;9.106;2023-03-12T11:22:51;12.60;99.90
4487;DHT22;2256;48.740;9.106;2023-03-12T11:25:24;12.40;99.90
4487;DHT22;2256;48.740;9.106;2023-03-12T11:27:55;12.60;99.90
4487;DHT22;2256;48.740;9.106;2023-03-12T11:30:28;12.90;99.90
4487;DHT22;2256;48.740;9.106;2023-03-12T11:32:57;13.30;99.90
4487;DHT22;2256;48.740;9.106;2023-03-12T11:35:32;13.40;99.90
4487;DHT22;2256;48.740;9.106;2023-03-12T11:38:12;13.60;99.90
4487;DHT22;2256;48.740;9.106;2023-03-12T11:41:00;13.70;99.90
4487;DHT22;2256;48.740;9.106;2023-03-12T11:43:47;13.70;99.90
4487;DHT22;2256;48.740;9.106;2023-03-12T11:46:22;13.70;99.90
4487;DHT22;2256;48.740;9.106;2023-03-12T11:48:59;13.70;99.90
4487;DHT22;2256;48.740;9.106;2023-03-12T11:51:40;13.40;99.90
4487;DHT22;2256;48.740;9.106;2023-03-12T11:54:26;13.10;99.90
4487;DHT22;2256;48.740;9.106;2023-03-12T11:57:00;12.80;99.90
4487;DHT22;2256;48.740;9.106;2023-03-12T11:59:42;12.70;99.90
4487;DHT22;2256;48.740;9.106;2023-03-12T12:02:22;12.60;99.90
4487;DHT22;2256;48.740;9.106;2023-03-12T12:05:18;12.50;99.90
4487;DHT22;2256;48.740;9.106;2023-03-12T12:07:56;12.60;99.90
4487;DHT22;2256;48.740;9.106;2023-03-12T12:10:30;12.50;99.90
4487;DHT22;2256;48.740;9.106;2023-03-12T12:13:05;12.30;99.90
4487;DHT22;2256;48.740;9.106;2023-03-12T12:15:37;12.40;99.90
4487;DHT22;2256;48.740;9.106;2023-03-12T12:18:27;12.70;99.90
4487;DHT22;2256;48.740;9.106;2023-03-12T12:21:00;13.00;99.90
4487;DHT22;2256;48.740;9.106;2023-03-12T12:23:40;13.50;99.90
4487;DHT22;2256;48.740;9.106;2023-03-12T12:26:13;13.70;99.90
4487;DHT22;2256;48.740;9.106;2023-03-12T12:28:59;13.70;99.90
4487;DHT22;2256;48.740;9.106;2023-03-12T12:31:36;13.80;99.90
4487;DHT22;2256;48.740;9.106;2023-03-12T12:37:43;13.90;99.90
4487;DHT22;2256;48.740;9.106;2023-03-12T12:40:19;14.00;99.90
4487;DHT22;2256;48.740;9.106;2023-03-12T12:42:55;14.00;99.90
4487;DHT22;2256;48.740;9.106;2023-03-12T12:45:25;13.90;99.90
4487;DHT22;2256;48.740;9.106;2023-03-12T12:47:57;13.70;99.90
4487;DHT22;2256;48.740;9.106;2023-03-12T12:50:29;13.50;99.90
4487;DHT22;2256;48.740;9.106;2023-03-12T12:53:02;13.30;99.90
4487;DHT22;2256;48.740;9.106;2023-03-12T12:55:35;13.10;99.90
4487;DHT22;2256;48.740;9.106;2023-03-12T12:58:10;13.10;99.90
4487;DHT22;2256;48.740;9.106;2023-03-12T13:00:50;12.80;99.90
4487;DHT22;2256;48.740;9.106;2023-03-12T13:03:21;12.70;99.90
4487;DHT22;2256;48.740;9.106;2023-03-12T13:05:57;12.50;99.90
4487;DHT22;2256;48.740;9.106;2023-03-12T13:08:56;12.20;99.90
4487;DHT22;2256;48.740;9.106;2023-03-12T13:11:30;12.20;99.90
4487;DHT22;2256;48.740;9.106;2023-03-12T13:14:21;11.90;99.90
4487;DHT22;2256;48.740;9.106;2023-03-12T13:17:06;11.80;99.90
4487;DHT22;2256;48.740;9.106;2023-03-12T13:19:38;11.70;99.90
4487;DHT22;2256;48.740;9.106;2023-03-12T13:22:11;11.80;99.90
4487;DHT22;2256;48.740;9.106;2023-03-12T13:24:44;11.80;99.90
4487;DHT22;2256;48.740;9.106;2023-03-12T13:27:16;12.00;99.90
4487;DHT22;2256;48.740;9.106;2023-03-12T13:29:45;12.10;99.90
4487;DHT22;2256;48.740;9.106;2023-03-12T13:35:29;12.30;99.90
4487;DHT22;2256;48.740;9.106;2023-03-12T13:38:00;12.20;99.90
4487;DHT22;2256;48.740;9.106;2023-03-12T13:41:01;12.20;99.90
4487;DHT22;2256;48.740;9.106;2023-03-12T13:43:53;12.10;99.90
4487;DHT22;2256;48.740;9.106;2023-03-12T13:46:28;11.90;99.90
4487;DHT22;2256;48.740;9.106;2023-03-12T13:49:04;11.90;99.90
4487;DHT22;2256;48.740;9.106;2023-03-12T13:51:31;11.80;99.90
4487;DHT22;2256;48.740;9.106;2023-03-12T13:54:00;12.00;99.90
4487;DHT22;2256;48.740;9.106;2023-03-12T13:56:29;12.20;99.90
4487;DHT22;2256;48.740;9.106;2023-03-12T13:58:59;12.30;99.90
4487;DHT22;2256;48.740;9.106;2023-03-12T14:01:27;12.40;99.90
4487;DHT22;2256;48.740;9.106;2023-03-12T14:03:57;12.50;99.90
4487;DHT22;2256;48.740;9.106;2023-03-12T14:06:28;12.60;99.90
4487;DHT22;2256;48.740;9.106;2023-03-12T14:09:08;12.60;99.90
4487;DHT22;2256;48.740;9.106;2023-03-12T14:11:46;12.50;99.90
4487;DHT22;2256;48.740;9.106;2023-03-12T14:14:27;12.40;99.90
4487;DHT22;2256;48.740;9.106;2023-03-12T14:16:59;12.40;99.90
4487;DHT22;2256;48.740;9.106;2023-03-12T14:19:29;12.40;99.90
4487;DHT22;2256;48.740;9.106;2023-03-12T14:22:02;12.30;99.90
4487;DHT22;2256;48.740;9.106;2023-03-12T14:24:33;12.20;99.90
4487;DHT22;2256;48.740;9.106;2023-03-12T14:27:02;12.20;99.90
4487;DHT22;2256;48.740;9.106;2023-03-12T14:29:34;12.10;99.90
4487;DHT22;2256;48.740;9.106;2023-03-12T14:32:04;11.90;99.90
4487;DHT22;2256;48.740;9.106;2023-03-12T14:34:37;11.90;99.90
4487;DHT22;2256;48.740;9.106;2023-03-12T14:37:11;12.00;99.90
4487;DHT22;2256;48.740;9.106;2023-03-12T14:39:43;12.00;99.90
4487;DHT22;2256;48.740;9.106;2023-03-12T14:42:19;12.00;99.90
4487;DHT22;2256;48.740;9.106;2023-03-12T14:44:57;11.90;99.90
4487;DHT22;2256;48.740;9.106;2023-03-12T14:47:29;11.80;99.90
4487;DHT22;2256;48.740;9.106;2023-03-12T14:50:05;11.70;99.90
4487;DHT22;2256;48.740;9.106;2023-03-12T14:52:34;11.50;99.90
4487;DHT22;2256;48.740;9.106;2023-03-12T14:55:05;11.40;99.90
4487;DHT22;2256;48.740;9.106;2023-03-12T14:57:34;11.40;99.90
4487;DHT22;2256;48.740;9.106;2023-03-12T15:00:00;11.50;99.90
4487;DHT22;2256;48.740;9.106;2023-03-12T15:02:29;11.70;99.90
4487;DHT22;2256;48.740;9.106;2023-03-12T15:04:59;11.90;99.90
4487;DHT22;2256;48.740;9.106;2023-03-12T15:07:29;12.10;99.90
4487;DHT22;2256;48.740;9.106;2023-03-12T15:10:15;12.00;99.90
4487;DHT22;2256;48.740;9.106;2023-03-12T15:12:47;12.30;99.90
4487;DHT22;2256;48.740;9.106;2023-03-12T15:15:33;12.30;99.90
4487;DHT22;2256;48.740;9.106;2023-03-12T15:18:10;12.30;99.90
4487;DHT22;2256;48.740;9.106;2023-03-12T15:20:39;12.30;99.90
4487;DHT22;2256;48.740;9.106;2023-03-12T15:23:08;12.20;99.90
4487;DHT22;2256;48.740;9.106;2023-03-12T15:25:37;12.10;99.90
4487;DHT22;2256;48.740;9.106;2023-03-12T15:28:06;12.20;99.90
4487;DHT22;2256;48.740;9.106;2023-03-12T15:30:37;12.20;99.90
4487;DHT22;2256;48.740;9.106;2023-03-12T15:33:06;12.10;99.90
4487;DHT22;2256;48.740;9.106;2023-03-12T15:35:33;12.10;99.90
4487;DHT22;2256;48.740;9.106;2023-03-12T15:38:01;12.10;99.90
4487;DHT22;2256;48.740;9.106;2023-03-12T15:40:29;11.90;99.90
4487;DHT22;2256;48.740;9.106;2023-03-12T15:42:58;11.90;99.90
4487;DHT22;2256;48.740;9.106;2023-03-12T15:45:34;11.80;99.90
4487;DHT22;2256;48.740;9.106;2023-03-12T15:48:04;11.70;99.90
4487;DHT22;2256;48.740;9.106;2023-03-12T15:50:40;11.70;99.90
4487;DHT22;2256;48.740;9.106;2023-03-12T15:53:24;11.70;99.90
4487;DHT22;2256;48.740;9.106;2023-03-12T15:55:57;11.70;99.90
4487;DHT22;2256;48.740;9.106;2023-03-12T15:58:29;11.60;99.90
4487;DHT22;2256;48.740;9.106;2023-03-12T16:01:06;11.60;99.90
4487;DHT22;2256;48.740;9.106;2023-03-12T16:03:34;11.60;99.90
4487;DHT22;2256;48.740;9.106;2023-03-12T16:06:01;11.60;99.90
4487;DHT22;2256;48.740;9.106;2023-03-12T16:08:35;11.50;99.90
4487;DHT22;2256;48.740;9.106;2023-03-12T16:11:03;11.40;99.90
4487;DHT22;2256;48.740;9.106;2023-03-12T16:13:31;11.50;99.90
4487;DHT22;2256;48.740;9.106;2023-03-12T16:15:58;11.50;99.90
4487;DHT22;2256;48.740;9.106;2023-03-12T16:18:25;11.50;99.90
4487;DHT22;2256;48.740;9.106;2023-03-12T16:20:52;11.30;99.90
4487;DHT22;2256;48.740;9.106;2023-03-12T16:23:19;11.20;99.90
4487;DHT22;2256;48.740;9.106;2023-03-12T16:25:49;11.20;99.90
4487;DHT22;2256;48.740;9.106;2023-03-12T16:28:18;11.10;99.90
4487;DHT22;2256;48.740;9.106;2023-03-12T16:30:47;11.00;99.90
4487;DHT22;2256;48.740;9.106;2023-03-12T16:33:16;11.00;99.90
4487;DHT22;2256;48.740;9.106;2023-03-12T16:35:43;11.00;99.90